createdAt,value
2022-12-08T00:02:17.336Z,97246.00
2022-12-08T00:05:04.707Z,97242.00
2022-12-08T00:07:51.775Z,97246.19
2022-12-08T00:10:47.998Z,97257.19
2022-12-08T00:13:08.568Z,97270.16
2022-12-08T00:15:37.459Z,97277.78
2022-12-08T00:18:06.633Z,97279.97
2022-12-08T00:20:35.067Z,97289.94
2022-12-08T00:23:04.663Z,97292.66
2022-12-08T00:25:36.028Z,97294.84
2022-12-08T00:28:04.533Z,97305.88
2022-12-08T00:30:32.869Z,97304.34
2022-12-08T00:33:01.228Z,97296.03
2022-12-08T00:35:29.648Z,97303.84
2022-12-08T00:38:01.035Z,97298.09
2022-12-08T00:40:29.932Z,97301.03
2022-12-08T00:42:58.724Z,97308.91
2022-12-08T00:45:27.105Z,97309.41
2022-12-08T00:47:55.462Z,97304.00
2022-12-08T00:50:24.453Z,97309.28
2022-12-08T00:52:52.864Z,97308.63
2022-12-08T00:55:21.166Z,97299.03
2022-12-08T00:57:49.570Z,97299.88
2022-12-08T01:00:18.244Z,97297.84
2022-12-08T01:02:47.270Z,97300.34
2022-12-08T01:05:15.769Z,97295.94
2022-12-08T01:07:44.125Z,97287.16
2022-12-08T01:10:12.608Z,97287.94
2022-12-08T01:12:40.975Z,97289.91
2022-12-08T01:15:09.752Z,97300.53
2022-12-08T01:17:38.372Z,97296.41
2022-12-08T01:20:07.506Z,97294.34
2022-12-08T01:22:36.448Z,97298.16
2022-12-08T01:25:06.324Z,97295.53
2022-12-08T01:27:35.315Z,97295.28
2022-12-08T01:30:05.458Z,97288.44
2022-12-08T01:32:33.997Z,97294.00
2022-12-08T01:35:02.373Z,97287.88
2022-12-08T01:37:30.753Z,97300.31
2022-12-08T01:39:59.084Z,97299.97
2022-12-08T01:42:27.471Z,97299.22
2022-12-08T01:45:03.118Z,97298.88
2022-12-08T01:47:42.871Z,97293.00
2022-12-08T01:50:12.200Z,97285.56
2022-12-08T01:52:47.160Z,97293.78
2022-12-08T01:55:20.346Z,97299.09
2022-12-08T01:57:54.500Z,97283.06
2022-12-08T02:00:22.934Z,97282.56
2022-12-08T02:02:59.321Z,97270.31
2022-12-08T02:05:29.900Z,97249.00
2022-12-08T02:07:58.812Z,97261.78
2022-12-08T02:10:30.574Z,97255.78
2022-12-08T02:12:58.960Z,97253.41
2022-12-08T02:15:46.572Z,97247.88
2022-12-08T02:18:35.316Z,97252.28
2022-12-08T02:21:11.866Z,97252.16
2022-12-08T02:23:46.939Z,97244.44
2022-12-08T02:26:29.130Z,97244.78
2022-12-08T02:29:06.392Z,97252.91
2022-12-08T02:32:21.293Z,97249.97
2022-12-08T02:35:05.121Z,97260.09
2022-12-08T02:37:36.169Z,97263.53
2022-12-08T02:40:08.892Z,97260.38
2022-12-08T02:42:52.321Z,97264.41
2022-12-08T02:45:30.924Z,97257.22
2022-12-08T02:47:59.484Z,97257.94
2022-12-08T02:50:28.566Z,97256.31
2022-12-08T02:52:57.023Z,97258.09
2022-12-08T02:55:51.892Z,97249.28
2022-12-08T02:58:27.542Z,97257.72
2022-12-08T03:01:33.661Z,97265.91
2022-12-08T03:04:11.149Z,97263.53
2022-12-08T03:06:55.312Z,97263.44
2022-12-08T03:09:43.294Z,97269.66
2022-12-08T03:12:19.632Z,97257.81
2022-12-08T03:14:50.529Z,97265.09
2022-12-08T03:17:19.685Z,97261.84
2022-12-08T03:19:48.527Z,97258.06
2022-12-08T03:22:18.943Z,97244.16
2022-12-08T03:24:47.436Z,97246.56
2022-12-08T03:27:26.858Z,97246.28
2022-12-08T03:29:56.020Z,97247.94
2022-12-08T03:32:27.394Z,97246.56
2022-12-08T03:34:56.269Z,97245.66
2022-12-08T03:37:24.777Z,97236.03
2022-12-08T03:39:53.166Z,97240.56
2022-12-08T03:42:22.159Z,97234.59
2022-12-08T03:44:50.521Z,97242.16
2022-12-08T03:47:18.786Z,97240.91
2022-12-08T03:49:47.204Z,97234.50
2022-12-08T03:52:16.220Z,97232.25
2022-12-08T03:54:45.650Z,97238.41
2022-12-08T03:57:14.052Z,97247.09
2022-12-08T03:59:43.277Z,97249.19
2022-12-08T04:02:11.710Z,97249.91
2022-12-08T04:04:40.211Z,97250.78
2022-12-08T04:07:09.012Z,97260.16
2022-12-08T04:09:37.440Z,97263.00
2022-12-08T04:12:05.981Z,97263.16
2022-12-08T04:14:34.286Z,97268.69
2022-12-08T04:17:02.636Z,97265.44
2022-12-08T04:19:31.616Z,97272.75
2022-12-08T04:22:00.084Z,97274.97
2022-12-08T04:24:28.549Z,97282.13
2022-12-08T04:26:57.406Z,97270.28
2022-12-08T04:29:25.780Z,97282.31
2022-12-08T04:31:54.219Z,97282.06
2022-12-08T04:34:22.776Z,97290.16
2022-12-08T04:36:51.148Z,97294.97
2022-12-08T04:39:19.546Z,97291.66
2022-12-08T04:41:47.886Z,97290.13
2022-12-08T04:44:16.321Z,97291.00
2022-12-08T04:46:44.716Z,97277.81
2022-12-08T04:49:13.208Z,97285.28
2022-12-08T04:51:42.017Z,97293.25
2022-12-08T04:54:10.370Z,97293.72
2022-12-08T04:56:38.745Z,97291.22
2022-12-08T04:59:07.148Z,97290.44
2022-12-08T05:01:36.287Z,97304.41
2022-12-08T05:04:04.766Z,97312.47
2022-12-08T05:06:33.134Z,97309.66
2022-12-08T05:09:01.493Z,97306.97
2022-12-08T05:11:29.911Z,97307.09
2022-12-08T05:13:58.339Z,97296.59
2022-12-08T05:16:26.828Z,97288.03
2022-12-08T05:18:55.326Z,97297.16
2022-12-08T05:21:24.594Z,97303.72
2022-12-08T05:23:53.103Z,97294.59
2022-12-08T05:26:22.010Z,97296.56
2022-12-08T05:28:50.344Z,97298.38
2022-12-08T05:31:18.968Z,97302.38
2022-12-08T05:33:47.611Z,97296.63
2022-12-08T05:36:16.141Z,97295.53
2022-12-08T05:38:44.722Z,97297.69
2022-12-08T05:41:22.186Z,97296.06
2022-12-08T05:43:50.716Z,97297.09
2022-12-08T05:46:19.448Z,97289.47
2022-12-08T05:48:47.947Z,97303.47
2022-12-08T05:51:20.913Z,97313.44
2022-12-08T05:53:49.781Z,97300.31
2022-12-08T05:56:18.270Z,97319.91
2022-12-08T05:58:47.091Z,97316.72
2022-12-08T06:01:33.637Z,97326.22
2022-12-08T06:04:02.769Z,97330.88
2022-12-08T06:06:31.443Z,97330.66
2022-12-08T06:09:00.431Z,97325.00
2022-12-08T06:11:29.948Z,97318.09
2022-12-08T06:13:59.825Z,97316.72
2022-12-08T06:16:28.752Z,97325.38
2022-12-08T06:18:57.301Z,97332.09
2022-12-08T06:21:26.034Z,97322.44
2022-12-08T06:23:54.950Z,97322.06
2022-12-08T06:26:23.578Z,97326.81
2022-12-08T06:28:52.112Z,97322.97
2022-12-08T06:31:24.978Z,97331.25
2022-12-08T06:33:54.258Z,97330.31
2022-12-08T06:36:26.035Z,97324.31
2022-12-08T06:38:54.544Z,97319.13
2022-12-08T06:41:23.016Z,97325.19
2022-12-08T06:43:51.455Z,97324.38
2022-12-08T06:46:20.495Z,97324.41
2022-12-08T06:48:50.837Z,97324.13
2022-12-08T06:51:20.569Z,97326.53
2022-12-08T06:53:49.034Z,97323.63
2022-12-08T06:56:20.345Z,97323.66
2022-12-08T06:58:52.476Z,97328.00
2022-12-08T07:01:21.553Z,97314.94
2022-12-08T07:03:50.253Z,97310.34
2022-12-08T07:06:24.038Z,97314.38
2022-12-08T07:08:52.735Z,97311.78
2022-12-08T07:11:22.222Z,97311.41
2022-12-08T07:13:51.150Z,97306.06
2022-12-08T07:16:19.711Z,97317.06
2022-12-08T07:18:48.273Z,97315.91
2022-12-08T07:21:16.891Z,97326.97
2022-12-08T07:23:54.274Z,97325.78
2022-12-08T07:26:25.758Z,97326.47
2022-12-08T07:28:54.662Z,97333.59
2022-12-08T07:31:24.950Z,97339.13
2022-12-08T07:33:54.363Z,97333.53
2022-12-08T07:36:22.939Z,97349.38
2022-12-08T07:38:53.523Z,97344.59
2022-12-08T07:41:23.883Z,97351.81
2022-12-08T07:43:53.943Z,97357.03
2022-12-08T07:46:23.242Z,97363.38
2022-12-08T07:48:52.949Z,97367.88
2022-12-08T07:51:21.387Z,97365.50
2022-12-08T07:53:54.294Z,97361.09
2022-12-08T07:56:23.562Z,97370.66
2022-12-08T07:58:52.236Z,97361.69
2022-12-08T08:01:28.502Z,97358.56
2022-12-08T08:03:57.706Z,97357.47
2022-12-08T08:06:26.739Z,97360.88
2022-12-08T08:08:55.189Z,97361.41
2022-12-08T08:11:23.691Z,97358.31
2022-12-08T08:13:52.875Z,97354.41
2022-12-08T08:16:22.628Z,97344.69
2022-12-08T08:18:51.920Z,97341.69
2022-12-08T08:21:45.596Z,97336.34
2022-12-08T08:24:09.741Z,97334.88
2022-12-08T08:26:38.772Z,97352.28
2022-12-08T08:29:07.103Z,97342.91
2022-12-08T08:31:35.710Z,97339.72
2022-12-08T08:34:06.677Z,97336.94
2022-12-08T08:36:35.661Z,97333.72
2022-12-08T08:39:05.730Z,97328.38
2022-12-08T08:41:35.856Z,97334.47
2022-12-08T08:44:05.412Z,97331.94
2022-12-08T08:46:33.955Z,97319.91
2022-12-08T08:49:02.463Z,97328.22
2022-12-08T08:51:31.687Z,97323.84
2022-12-08T08:54:00.033Z,97308.47
2022-12-08T08:56:28.447Z,97309.22
2022-12-08T08:58:56.955Z,97306.41
2022-12-08T09:01:27.526Z,97304.09
2022-12-08T09:03:57.213Z,97324.03
2022-12-08T09:06:25.932Z,97331.53
2022-12-08T09:08:54.503Z,97340.59
2022-12-08T09:11:23.789Z,97338.66
2022-12-08T09:13:52.645Z,97329.44
2022-12-08T09:16:21.277Z,97334.19
2022-12-08T09:18:49.894Z,97337.72
2022-12-08T09:21:23.146Z,97325.25
2022-12-08T09:23:53.368Z,97324.25
2022-12-08T09:26:22.761Z,97314.88
2022-12-08T09:28:51.683Z,97317.97
2022-12-08T09:31:21.012Z,97328.78
2022-12-08T09:33:51.852Z,97310.56
2022-12-08T09:36:20.773Z,97303.09
2022-12-08T09:38:50.581Z,97305.63
2022-12-08T09:41:38.906Z,97293.25
2022-12-08T09:44:42.601Z,97292.69
2022-12-08T09:47:22.682Z,97289.38
2022-12-08T09:50:25.091Z,97284.59
2022-12-08T09:53:20.018Z,97281.47
2022-12-08T09:55:56.928Z,97267.31
2022-12-08T09:58:30.426Z,97265.69
2022-12-08T10:00:58.902Z,97256.69
2022-12-08T10:03:28.850Z,97261.25
2022-12-08T10:06:16.131Z,97258.38
2022-12-08T10:09:04.999Z,97250.06
2022-12-08T10:11:41.288Z,97252.25
2022-12-08T10:14:22.219Z,97253.91
2022-12-08T10:16:51.097Z,97240.75
2022-12-08T10:19:20.958Z,97243.41
2022-12-08T10:21:50.485Z,97238.09
2022-12-08T10:24:33.934Z,97228.19
2022-12-08T10:27:02.514Z,97230.19
2022-12-08T10:29:31.564Z,97222.59
2022-12-08T10:32:00.504Z,97215.78
2022-12-08T10:34:29.046Z,97223.50
2022-12-08T10:36:59.155Z,97225.94
2022-12-08T10:39:34.759Z,97219.34
2022-12-08T10:42:14.999Z,97224.81
2022-12-08T10:45:09.570Z,97226.75
2022-12-08T10:47:42.487Z,97219.13
2022-12-08T10:50:21.435Z,97226.47
2022-12-08T10:52:56.616Z,97214.72
2022-12-08T10:55:25.260Z,97210.72
2022-12-08T10:57:53.729Z,97198.03
2022-12-08T11:00:26.359Z,97197.41
2022-12-08T11:02:57.921Z,97185.44
2022-12-08T11:05:44.581Z,97176.06
2022-12-08T11:08:13.809Z,97179.88
2022-12-08T11:10:45.808Z,97173.72
2022-12-08T11:13:26.682Z,97169.53
2022-12-08T11:15:55.550Z,97166.03
2022-12-08T11:18:31.777Z,97160.00
2022-12-08T11:21:03.031Z,97147.44
2022-12-08T11:23:31.531Z,97151.09
2022-12-08T11:26:04.397Z,97149.03
2022-12-08T11:28:32.898Z,97130.69
2022-12-08T11:31:22.077Z,97130.16
2022-12-08T11:33:51.079Z,97128.28
2022-12-08T11:36:19.740Z,97119.59
2022-12-08T11:38:48.710Z,97119.25
2022-12-08T11:41:18.716Z,97122.09
2022-12-08T11:44:25.961Z,97123.84
2022-12-08T11:47:16.171Z,97117.94
2022-12-08T11:52:24.423Z,97114.97
2022-12-08T11:55:16.013Z,97122.03
2022-12-08T11:57:44.966Z,97114.50
2022-12-08T12:00:14.781Z,97105.25
2022-12-08T12:02:46.606Z,97099.94
2022-12-08T12:06:12.576Z,97103.69
2022-12-08T12:08:58.585Z,97106.75
2022-12-08T12:11:52.312Z,97095.75
2022-12-08T12:14:41.879Z,97101.94
2022-12-08T12:17:42.186Z,97097.94
2022-12-08T12:20:21.054Z,97098.34
2022-12-08T12:22:53.153Z,97098.97
2022-12-08T12:25:23.982Z,97099.03
2022-12-08T12:27:57.177Z,97095.38
2022-12-08T12:30:27.478Z,97102.81
2022-12-08T12:32:58.311Z,97099.75
2022-12-08T12:35:33.918Z,97096.31
2022-12-08T12:38:35.825Z,97104.41
2022-12-08T12:41:04.733Z,97095.53
2022-12-08T12:43:38.123Z,97095.66
2022-12-08T12:46:28.272Z,97098.44
2022-12-08T12:48:58.530Z,97099.00
2022-12-08T12:51:40.088Z,97091.19
2022-12-08T12:54:27.385Z,97093.59
2022-12-08T12:57:10.802Z,97095.47
2022-12-08T12:59:54.648Z,97087.78
2022-12-08T13:02:31.354Z,97087.69
2022-12-08T13:05:09.997Z,97083.09
2022-12-08T13:08:01.342Z,97081.53
2022-12-08T13:10:36.958Z,97079.78
2022-12-08T13:13:11.086Z,97076.34
2022-12-08T13:15:41.208Z,97089.03
2022-12-08T13:18:22.045Z,97084.84
2022-12-08T13:21:04.759Z,97080.38
2022-12-08T13:23:50.739Z,97082.50
2022-12-08T13:26:23.779Z,97081.06
2022-12-08T13:29:04.610Z,97086.47
2022-12-08T13:31:37.397Z,97077.63
2022-12-08T13:34:27.021Z,97078.28
2022-12-08T13:37:16.440Z,97087.69
2022-12-08T13:39:59.986Z,97074.00
2022-12-08T13:42:43.403Z,97074.19
2022-12-08T13:45:27.989Z,97071.59
2022-12-08T13:48:25.587Z,97073.94
2022-12-08T13:54:56.029Z,97075.94
2022-12-08T13:57:10.190Z,97081.84
2022-12-08T13:59:35.035Z,97080.44
2022-12-08T14:02:18.153Z,97081.41
2022-12-08T14:07:39.415Z,97082.53
2022-12-08T14:10:16.490Z,97082.53
2022-12-08T14:12:46.789Z,97095.81
2022-12-08T14:15:15.938Z,97085.38
2022-12-08T14:17:54.799Z,97080.91
2022-12-08T14:20:24.886Z,97082.19
2022-12-08T14:22:54.163Z,97091.31
2022-12-08T14:25:22.981Z,97089.31
2022-12-08T14:27:51.337Z,97086.25
2022-12-08T14:30:26.678Z,97084.41
2022-12-08T14:32:59.192Z,97084.34
2022-12-08T14:35:34.075Z,97085.19
2022-12-08T14:38:10.365Z,97077.44
2022-12-08T14:40:41.938Z,97082.66
2022-12-08T14:43:10.494Z,97091.28
2022-12-08T14:45:43.014Z,97092.31
2022-12-08T14:48:26.096Z,97087.53
2022-12-08T14:51:02.302Z,97091.56
2022-12-08T14:53:41.683Z,97101.13
2022-12-08T14:56:23.210Z,97107.13
2022-12-08T14:59:12.514Z,97102.13
2022-12-08T15:01:41.727Z,97098.56
2022-12-08T15:04:13.107Z,97096.94
2022-12-08T15:06:50.812Z,97090.66
2022-12-08T15:10:17.898Z,97098.63
2022-12-08T15:13:05.495Z,97100.31
2022-12-08T15:15:58.176Z,97084.28
2022-12-08T15:18:40.263Z,97098.97
2022-12-08T15:21:09.721Z,97092.81
2022-12-08T15:23:45.547Z,97080.78
2022-12-08T15:26:24.830Z,97086.78
2022-12-08T15:28:53.871Z,97092.03
2022-12-08T15:31:22.531Z,97084.00
2022-12-08T15:33:51.456Z,97080.59
2022-12-08T15:36:20.642Z,97082.69
2022-12-08T15:38:49.219Z,97092.91
2022-12-08T15:41:17.829Z,97083.97
2022-12-08T15:43:46.642Z,97087.00
2022-12-08T15:46:15.264Z,97095.19
2022-12-08T15:48:43.777Z,97088.91
2022-12-08T15:51:12.142Z,97090.44
2022-12-08T15:53:40.540Z,97090.47
2022-12-08T15:58:58.345Z,97089.97
2022-12-08T16:01:27.642Z,97082.69
2022-12-08T16:09:42.645Z,97096.59
2022-12-08T16:13:19.975Z,97095.78
2022-12-08T16:15:50.030Z,97098.47
2022-12-08T16:18:24.197Z,97100.72
2022-12-08T16:23:43.602Z,97108.69
2022-12-08T16:29:08.126Z,97100.00
2022-12-08T16:31:36.673Z,97109.16
2022-12-08T16:34:05.148Z,97096.47
2022-12-08T16:36:33.942Z,97095.78
2022-12-08T16:39:03.503Z,97095.91
2022-12-08T16:41:50.650Z,97099.38
2022-12-08T16:44:19.428Z,97093.22
2022-12-08T16:46:47.912Z,97115.28
2022-12-08T16:49:16.339Z,97104.56
2022-12-08T16:51:45.149Z,97110.63
2022-12-08T16:54:13.620Z,97108.03
2022-12-08T16:56:43.773Z,97115.28
2022-12-08T16:59:12.949Z,97107.66
2022-12-08T17:01:41.426Z,97105.63
2022-12-08T17:06:59.624Z,97124.31
2022-12-08T17:09:29.632Z,97141.66
2022-12-08T17:12:03.510Z,97127.81
2022-12-08T17:14:35.103Z,97141.47
2022-12-08T17:17:04.451Z,97141.69
2022-12-08T17:19:33.354Z,97156.25
2022-12-08T17:22:02.818Z,97142.84
2022-12-08T17:24:31.814Z,97143.47
2022-12-08T17:27:04.955Z,97137.53
2022-12-08T17:29:34.868Z,97124.47
2022-12-08T17:32:03.991Z,97125.72
2022-12-08T17:34:33.887Z,97137.13
2022-12-08T17:37:02.604Z,97133.97
2022-12-08T17:39:32.606Z,97131.78
2022-12-08T17:42:02.515Z,97128.25
2022-12-08T17:44:35.129Z,97130.75
2022-12-08T17:47:07.887Z,97144.97
2022-12-08T17:49:37.531Z,97136.66
2022-12-08T17:52:09.481Z,97131.41
2022-12-08T17:54:38.829Z,97134.19
2022-12-08T17:57:08.081Z,97142.00
2022-12-08T17:59:36.895Z,97133.06
2022-12-08T18:02:09.212Z,97144.84
2022-12-08T18:04:38.850Z,97137.78
2022-12-08T18:07:07.652Z,97137.88
2022-12-08T18:09:36.854Z,97143.78
2022-12-08T18:12:06.259Z,97129.63
2022-12-08T18:14:35.024Z,97130.00
2022-12-08T18:17:05.690Z,97131.44
2022-12-08T18:19:34.743Z,97131.53
2022-12-08T18:22:03.793Z,97127.28
2022-12-08T18:24:32.806Z,97136.00
2022-12-08T18:27:01.484Z,97141.63
2022-12-08T18:29:30.658Z,97134.38
2022-12-08T18:31:59.933Z,97138.19
2022-12-08T18:34:29.050Z,97137.13
2022-12-08T18:36:57.889Z,97138.78
2022-12-08T18:39:28.886Z,97140.03
2022-12-08T18:41:58.247Z,97142.13
2022-12-08T18:44:26.997Z,97157.72
2022-12-08T18:46:56.717Z,97152.88
2022-12-08T18:49:27.370Z,97149.16
2022-12-08T18:51:58.523Z,97164.06
2022-12-08T18:54:50.093Z,97166.44
2022-12-08T18:57:18.979Z,97152.31
2022-12-08T18:59:48.078Z,97151.78
2022-12-08T19:02:17.524Z,97152.91
2022-12-08T19:04:46.184Z,97163.94
2022-12-08T19:07:17.673Z,97171.50
2022-12-08T19:09:46.334Z,97174.53
2022-12-08T19:12:15.287Z,97175.06
2022-12-08T19:14:44.066Z,97184.28
2022-12-08T19:17:13.224Z,97183.25
2022-12-08T19:19:41.853Z,97179.09
2022-12-08T19:22:10.353Z,97179.31
2022-12-08T19:24:39.473Z,97180.41
2022-12-08T19:27:08.271Z,97188.47
2022-12-08T19:29:36.668Z,97180.75
2022-12-08T19:32:05.552Z,97196.06
2022-12-08T19:34:34.386Z,97189.94
2022-12-08T19:37:03.247Z,97189.78
2022-12-08T19:39:50.661Z,97179.69
2022-12-08T19:42:38.645Z,97184.00
2022-12-08T19:45:18.341Z,97190.63
2022-12-08T19:47:47.613Z,97194.59
2022-12-08T19:50:35.091Z,97189.53
2022-12-08T19:53:09.052Z,97189.16
2022-12-08T19:55:37.639Z,97198.22
2022-12-08T19:58:06.291Z,97211.66
2022-12-08T20:00:35.359Z,97216.97
2022-12-08T20:03:04.660Z,97235.31
2022-12-08T20:05:34.525Z,97239.09
2022-12-08T20:08:04.130Z,97237.91
2022-12-08T20:10:35.954Z,97242.75
2022-12-08T20:13:24.323Z,97241.91
2022-12-08T20:15:53.375Z,97227.66
2022-12-08T20:18:22.078Z,97234.06
2022-12-08T20:20:51.015Z,97234.41
2022-12-08T20:23:20.067Z,97227.97
2022-12-08T20:25:48.743Z,97226.50
2022-12-08T20:28:19.850Z,97213.13
2022-12-08T20:30:49.467Z,97228.59
2022-12-08T20:33:19.661Z,97228.38
2022-12-08T20:35:49.066Z,97249.72
2022-12-08T20:38:17.952Z,97267.81
2022-12-08T20:40:47.677Z,97262.66
2022-12-08T20:43:16.380Z,97259.22
2022-12-08T20:45:45.315Z,97258.25
2022-12-08T20:48:13.875Z,97249.44
2022-12-08T20:50:42.676Z,97243.63
2022-12-08T20:53:11.306Z,97236.59
2022-12-08T20:55:42.074Z,97233.69
2022-12-08T20:58:10.853Z,97230.91
2022-12-08T21:00:39.383Z,97237.16
2022-12-08T21:03:08.788Z,97235.47
2022-12-08T21:05:39.109Z,97230.97
2022-12-08T21:08:07.966Z,97232.75
2022-12-08T21:10:40.776Z,97244.34
2022-12-08T21:13:12.270Z,97249.34
2022-12-08T21:15:48.160Z,97239.41
2022-12-08T21:18:17.330Z,97220.94
2022-12-08T21:20:45.864Z,97230.28
2022-12-08T21:23:14.918Z,97226.59
2022-12-08T21:25:44.582Z,97226.06
2022-12-08T21:28:13.668Z,97218.09
2022-12-08T21:30:43.235Z,97211.84
2022-12-08T21:33:12.034Z,97212.47
2022-12-08T21:35:40.651Z,97203.56
2022-12-08T21:38:09.312Z,97201.56
2022-12-08T21:40:38.057Z,97190.56
2022-12-08T21:43:07.287Z,97186.00
2022-12-08T21:45:36.793Z,97186.81
2022-12-08T21:48:10.819Z,97206.28
2022-12-08T21:50:40.401Z,97209.28
2022-12-08T21:53:08.991Z,97194.03
2022-12-08T21:55:37.574Z,97201.00
2022-12-08T21:58:06.256Z,97204.56
2022-12-08T22:00:34.989Z,97206.53
2022-12-08T22:03:04.760Z,97195.06
2022-12-08T22:05:36.184Z,97199.91
2022-12-08T22:08:05.100Z,97205.38
2022-12-08T22:10:33.733Z,97211.53
2022-12-08T22:13:02.597Z,97201.63
2022-12-08T22:15:31.359Z,97193.22
2022-12-08T22:18:01.018Z,97202.53
2022-12-08T22:20:29.844Z,97208.09
2022-12-08T22:22:58.725Z,97211.84
2022-12-08T22:25:27.360Z,97204.47
2022-12-08T22:27:55.913Z,97199.72
2022-12-08T22:30:24.551Z,97202.19
2022-12-08T22:32:53.045Z,97202.97
2022-12-08T22:35:22.167Z,97201.88
2022-12-08T22:37:51.145Z,97198.75
2022-12-08T22:40:20.700Z,97199.91
2022-12-08T22:42:50.020Z,97201.31
2022-12-08T22:45:19.009Z,97190.75
2022-12-08T22:47:47.790Z,97187.97
2022-12-08T22:50:16.394Z,97202.38
2022-12-08T22:52:45.474Z,97192.31
2022-12-08T22:55:14.918Z,97198.59
2022-12-08T22:57:44.571Z,97193.50
2022-12-08T23:00:13.420Z,97191.72
2022-12-08T23:02:42.035Z,97193.91
2022-12-08T23:05:11.144Z,97190.16
2022-12-08T23:07:39.808Z,97191.75
2022-12-08T23:10:09.531Z,97187.00
2022-12-08T23:12:38.451Z,97195.69
2022-12-08T23:15:07.809Z,97199.06
2022-12-08T23:17:37.180Z,97188.31
2022-12-08T23:20:06.745Z,97189.56
2022-12-08T23:22:35.998Z,97180.47
2022-12-08T23:25:06.340Z,97183.25
2022-12-08T23:27:35.230Z,97181.63
2022-12-08T23:30:08.302Z,97185.63
2022-12-08T23:32:37.127Z,97191.53
2022-12-08T23:35:06.528Z,97180.69
2022-12-08T23:37:35.254Z,97185.03
2022-12-08T23:40:05.324Z,97184.44
2022-12-08T23:42:34.267Z,97195.66
2022-12-08T23:45:04.528Z,97193.69
2022-12-08T23:47:33.011Z,97193.31
2022-12-08T23:50:01.606Z,97196.19
2022-12-08T23:52:30.065Z,97193.31
2022-12-08T23:54:58.592Z,97196.66
2022-12-08T23:57:28.203Z,97191.31
2022-12-08T23:59:56.608Z,97197.44
